createdAt,value
2019-06-01T00:00:25.583Z,995.90
2019-06-01T00:01:25.525Z,995.93
2019-06-01T00:02:25.452Z,995.94
2019-06-01T00:03:25.390Z,995.92
2019-06-01T00:04:25.364Z,995.91
2019-06-01T00:05:25.252Z,995.91
2019-06-01T00:06:25.186Z,995.92
2019-06-01T00:07:25.122Z,995.92
2019-06-01T00:08:25.052Z,995.93
2019-06-01T00:09:24.990Z,995.90
2019-06-01T00:10:24.923Z,995.88
2019-06-01T00:11:24.854Z,995.86
2019-06-01T00:12:24.792Z,995.88
2019-06-01T00:13:24.728Z,995.88
2019-06-01T00:14:24.660Z,995.85
2019-06-01T00:15:24.601Z,995.86
2019-06-01T00:16:24.535Z,995.85
2019-06-01T00:17:24.460Z,995.90
2019-06-01T00:18:24.389Z,995.86
2019-06-01T00:19:24.332Z,995.87
2019-06-01T00:20:24.270Z,995.88
2019-06-01T00:21:24.196Z,995.87
2019-06-01T00:22:24.131Z,995.85
2019-06-01T00:23:24.062Z,995.87
2019-06-01T00:24:24.013Z,995.87
2019-06-01T00:25:23.935Z,995.85
2019-06-01T00:26:23.864Z,995.88
2019-06-01T00:27:23.802Z,995.88
2019-06-01T00:28:23.732Z,995.93
2019-06-01T00:29:23.662Z,995.91
2019-06-01T00:30:26.944Z,995.92
2019-06-01T00:31:23.534Z,995.94
2019-06-01T00:32:23.469Z,995.90
2019-06-01T00:33:23.400Z,995.92
2019-06-01T00:34:23.332Z,995.89
2019-06-01T00:35:23.267Z,995.93
2019-06-01T00:36:23.197Z,995.94
2019-06-01T00:37:23.134Z,995.94
2019-06-01T00:38:23.066Z,995.94
2019-06-01T00:39:23.003Z,995.88
2019-06-01T00:40:22.933Z,995.90
2019-06-01T00:41:22.863Z,995.88
2019-06-01T00:42:22.802Z,995.82
2019-06-01T00:43:22.734Z,995.82
2019-06-01T00:44:22.668Z,995.80
2019-06-01T00:45:22.604Z,995.80
2019-06-01T00:46:22.544Z,995.81
2019-06-01T00:47:22.476Z,995.80
2019-06-01T00:48:22.400Z,995.80
2019-06-01T00:49:22.343Z,995.81
2019-06-01T00:50:22.272Z,995.87
2019-06-01T00:51:22.207Z,995.86
2019-06-01T00:52:22.137Z,995.89
2019-06-01T00:53:22.073Z,995.92
2019-06-01T00:54:22.004Z,995.93
2019-06-01T00:55:21.937Z,995.92
2019-06-01T00:56:21.882Z,995.92
2019-06-01T00:57:22.320Z,995.92
2019-06-01T00:58:21.742Z,995.94
2019-06-01T00:59:21.674Z,995.94
2019-06-01T01:00:21.605Z,995.91
2019-06-01T01:01:21.540Z,995.94
2019-06-01T01:02:21.475Z,995.95
2019-06-01T01:03:21.458Z,995.93
2019-06-01T01:04:21.341Z,995.95
2019-06-01T01:05:21.272Z,995.92
2019-06-01T01:06:21.210Z,995.95
2019-06-01T01:07:21.144Z,995.94
2019-06-01T01:08:21.078Z,995.93
2019-06-01T01:09:21.019Z,995.95
2019-06-01T01:10:20.951Z,995.92
2019-06-01T01:11:20.887Z,995.92
2019-06-01T01:12:20.813Z,995.93
2019-06-01T01:13:20.747Z,995.91
2019-06-01T01:14:20.679Z,995.89
2019-06-01T01:15:20.626Z,995.89
2019-06-01T01:16:20.547Z,995.92
2019-06-01T01:17:20.481Z,995.88
2019-06-01T01:18:20.421Z,995.89
2019-06-01T01:19:20.346Z,995.87
2019-06-01T01:20:20.281Z,995.87
2019-06-01T01:21:20.216Z,995.88
2019-06-01T01:22:20.154Z,995.83
2019-06-01T01:23:20.086Z,995.80
2019-06-01T01:24:20.021Z,995.78
2019-06-01T01:25:19.949Z,995.79
2019-06-01T01:26:19.888Z,995.77
2019-06-01T01:27:19.826Z,995.72
2019-06-01T01:28:19.771Z,995.72
2019-06-01T01:29:19.687Z,995.72
2019-06-01T01:30:19.624Z,995.69
2019-06-01T01:31:19.569Z,995.67
2019-06-01T01:32:19.492Z,995.68
2019-06-01T01:33:19.432Z,995.71
2019-06-01T01:34:19.363Z,995.66
2019-06-01T01:35:19.305Z,995.69
2019-06-01T01:36:19.227Z,995.71
2019-06-01T01:37:19.161Z,995.68
2019-06-01T01:38:19.098Z,995.67
2019-06-01T01:39:19.028Z,995.75
2019-06-01T01:40:18.958Z,995.70
2019-06-01T01:41:18.906Z,995.75
2019-06-01T01:42:18.828Z,995.68
2019-06-01T01:43:18.770Z,995.72
2019-06-01T01:44:18.709Z,995.72
2019-06-01T01:45:18.623Z,995.72
2019-06-01T01:46:18.562Z,995.70
2019-06-01T01:47:18.490Z,995.72
2019-06-01T01:48:18.447Z,995.73
2019-06-01T01:49:18.364Z,995.69
2019-06-01T01:50:18.294Z,995.73
2019-06-01T01:51:18.232Z,995.69
2019-06-01T01:52:18.158Z,995.76
2019-06-01T01:53:18.096Z,995.73
2019-06-01T01:54:18.027Z,995.74
2019-06-01T01:55:17.963Z,995.75
2019-06-01T01:56:17.898Z,995.73
2019-06-01T01:57:17.852Z,995.76
2019-06-01T01:58:17.760Z,995.76
2019-06-01T01:59:17.700Z,995.81
2019-06-01T02:00:17.632Z,995.75
2019-06-01T02:01:22.736Z,995.78
2019-06-01T02:02:17.502Z,995.76
2019-06-01T02:03:17.432Z,995.79
2019-06-01T02:04:17.375Z,995.75
2019-06-01T02:05:17.331Z,995.74
2019-06-01T02:06:17.250Z,995.73
2019-06-01T02:07:17.183Z,995.76
2019-06-01T02:08:17.098Z,995.74
2019-06-01T02:09:17.036Z,995.76
2019-06-01T02:10:16.961Z,995.78
2019-06-01T02:11:16.896Z,995.77
2019-06-01T02:12:16.845Z,995.80
2019-06-01T02:13:16.766Z,995.82
2019-06-01T02:14:16.699Z,995.84
2019-06-01T02:15:16.634Z,995.83
2019-06-01T02:16:16.580Z,995.87
2019-06-01T02:17:16.514Z,995.86
2019-06-01T02:18:16.434Z,995.85
2019-06-01T02:19:16.378Z,995.84
2019-06-01T02:20:16.327Z,995.82
2019-06-01T02:21:16.234Z,995.84
2019-06-01T02:22:16.169Z,995.84
2019-06-01T02:23:16.104Z,995.85
2019-06-01T02:24:16.037Z,995.84
2019-06-01T02:25:15.973Z,995.86
2019-06-01T02:26:15.904Z,995.85
2019-06-01T02:27:15.843Z,995.89
2019-06-01T02:28:15.772Z,995.92
2019-06-01T02:29:15.704Z,995.95
2019-06-01T02:30:15.640Z,995.92
2019-06-01T02:31:15.574Z,995.89
2019-06-01T02:32:15.509Z,995.91
2019-06-01T02:33:15.447Z,995.94
2019-06-01T02:34:15.375Z,995.91
2019-06-01T02:35:15.309Z,995.91
2019-06-01T02:36:15.245Z,995.97
2019-06-01T02:37:15.172Z,995.91
2019-06-01T02:38:15.107Z,995.90
2019-06-01T02:39:15.042Z,995.91
2019-06-01T02:40:14.973Z,995.88
2019-06-01T02:41:14.907Z,995.91
2019-06-01T02:42:14.841Z,995.89
2019-06-01T02:43:14.782Z,995.93
2019-06-01T02:44:14.711Z,995.94
2019-06-01T02:45:14.647Z,995.96
2019-06-01T02:46:14.579Z,995.93
2019-06-01T02:47:14.515Z,995.94
2019-06-01T02:48:14.446Z,995.96
2019-06-01T02:49:14.383Z,995.94
2019-06-01T02:50:14.313Z,995.98
2019-06-01T02:51:14.246Z,995.97
2019-06-01T02:52:14.180Z,995.92
2019-06-01T02:53:14.110Z,995.93
2019-06-01T02:54:14.046Z,995.96
2019-06-01T02:55:13.999Z,995.93
2019-06-01T02:56:13.916Z,995.93
2019-06-01T02:57:13.849Z,995.92
2019-06-01T02:58:13.786Z,995.94
2019-06-01T02:59:13.719Z,995.94
2019-06-01T03:00:13.658Z,995.92
2019-06-01T03:01:13.580Z,995.92
2019-06-01T03:02:15.051Z,995.94
2019-06-01T03:03:13.451Z,995.92
2019-06-01T03:04:13.382Z,995.94
2019-06-01T03:05:13.318Z,995.94
2019-06-01T03:06:13.246Z,995.92
2019-06-01T03:07:13.183Z,995.94
2019-06-01T03:08:13.118Z,995.95
2019-06-01T03:09:13.054Z,995.88
2019-06-01T03:10:12.984Z,995.93
2019-06-01T03:11:12.916Z,995.90
2019-06-01T03:12:12.858Z,995.92
2019-06-01T03:13:12.789Z,995.93
2019-06-01T03:14:12.721Z,995.94
2019-06-01T03:15:12.653Z,995.94
2019-06-01T03:16:12.587Z,995.95
2019-06-01T03:17:12.516Z,995.94
2019-06-01T03:18:12.456Z,995.93
2019-06-01T03:19:12.392Z,995.90
2019-06-01T03:20:12.320Z,995.92
2019-06-01T03:21:12.254Z,995.93
2019-06-01T03:22:12.184Z,995.92
2019-06-01T03:23:12.150Z,995.95
2019-06-01T03:24:13.305Z,995.98
2019-06-01T03:25:12.338Z,995.96
2019-06-01T03:26:12.463Z,995.96
2019-06-01T03:27:12.438Z,995.97
2019-06-01T03:28:12.427Z,995.94
2019-06-01T03:29:12.650Z,995.95
2019-06-01T03:30:15.102Z,995.96
2019-06-01T03:31:13.177Z,995.95
2019-06-01T03:32:29.065Z,995.98
2019-06-01T03:33:11.458Z,995.96
2019-06-01T03:34:11.683Z,995.98
2019-06-01T03:35:11.324Z,995.97
2019-06-01T03:36:11.263Z,995.96
2019-06-01T03:37:11.194Z,995.95
2019-06-01T03:38:11.206Z,995.94
2019-06-01T03:39:12.887Z,995.95
2019-06-01T03:40:19.643Z,995.95
2019-06-01T03:41:10.924Z,995.98
2019-06-01T03:42:11.719Z,995.99
2019-06-01T03:43:11.363Z,996.01
2019-06-01T03:44:10.724Z,995.99
2019-06-01T03:45:12.366Z,995.98
2019-06-01T03:46:10.590Z,996.02
2019-06-01T03:47:11.654Z,996.02
2019-06-01T03:48:10.455Z,996.04
2019-06-01T03:49:10.390Z,996.01
2019-06-01T03:50:10.338Z,996.03
2019-06-01T03:51:10.257Z,996.06
2019-06-01T03:52:10.186Z,996.08
2019-06-01T03:53:10.125Z,996.03
2019-06-01T03:54:10.256Z,996.02
2019-06-01T03:55:09.992Z,996.01
2019-06-01T03:56:11.043Z,996.06
2019-06-01T03:57:11.149Z,996.00
2019-06-01T03:58:09.793Z,995.97
2019-06-01T03:59:09.725Z,995.97
2019-06-01T04:00:09.652Z,995.98
2019-06-01T04:01:09.593Z,995.93
2019-06-01T04:02:09.527Z,995.92
2019-06-01T04:03:09.458Z,995.97
2019-06-01T04:04:09.439Z,995.94
2019-06-01T04:05:09.398Z,995.96
2019-06-01T04:06:09.478Z,996.00
2019-06-01T04:07:10.622Z,995.99
2019-06-01T04:08:09.706Z,996.00
2019-06-01T04:09:09.865Z,996.00
2019-06-01T04:10:09.987Z,995.99
2019-06-01T04:11:09.752Z,996.02
2019-06-01T04:12:09.759Z,996.04
2019-06-01T04:13:09.622Z,996.03
2019-06-01T04:14:09.860Z,996.04
2019-06-01T04:15:12.828Z,996.03
2019-06-01T04:16:08.587Z,996.02
2019-06-01T04:17:08.518Z,996.10
2019-06-01T04:18:08.456Z,996.04
2019-06-01T04:19:08.390Z,996.07
2019-06-01T04:20:08.342Z,996.05
2019-06-01T04:21:08.255Z,996.05
2019-06-01T04:22:08.189Z,996.09
2019-06-01T04:23:08.170Z,996.10
2019-06-01T04:24:08.095Z,996.08
2019-06-01T04:25:08.358Z,996.11
2019-06-01T04:26:08.132Z,996.13
2019-06-01T04:27:08.243Z,996.13
2019-06-01T04:28:08.203Z,996.11
2019-06-01T04:29:08.281Z,996.15
2019-06-01T04:30:07.671Z,996.13
2019-06-01T04:31:08.597Z,996.16
2019-06-01T04:32:08.650Z,996.13
2019-06-01T04:33:07.455Z,996.14
2019-06-01T04:34:07.387Z,996.13
2019-06-01T04:35:07.448Z,996.11
2019-06-01T04:36:07.264Z,996.12
2019-06-01T04:37:07.192Z,996.12
2019-06-01T04:38:07.233Z,996.07
2019-06-01T04:39:07.339Z,996.09
2019-06-01T04:40:07.457Z,996.08
2019-06-01T04:41:07.609Z,996.07
2019-06-01T04:42:07.719Z,996.11
2019-06-01T04:43:07.859Z,996.07
2019-06-01T04:44:07.779Z,996.07
2019-06-01T04:45:07.194Z,996.07
2019-06-01T04:46:06.589Z,996.07
2019-06-01T04:47:06.717Z,996.06
2019-06-01T04:48:06.461Z,996.07
2019-06-01T04:49:06.561Z,996.08
2019-06-01T04:50:06.721Z,996.10
2019-06-01T04:51:06.632Z,996.12
2019-06-01T04:52:06.749Z,996.09
2019-06-01T04:53:06.834Z,996.08
2019-06-01T04:54:06.848Z,996.10
2019-06-01T04:55:07.271Z,996.10
2019-06-01T04:56:07.042Z,996.12
2019-06-01T04:57:06.753Z,996.09
2019-06-01T04:58:06.762Z,996.15
2019-06-01T04:59:06.743Z,996.13
2019-06-01T05:00:19.841Z,996.13
2019-06-01T05:01:06.796Z,996.14
2019-06-01T05:02:05.745Z,996.17
2019-06-01T05:03:08.482Z,996.13
2019-06-01T05:04:05.381Z,996.17
2019-06-01T05:05:05.334Z,996.16
2019-06-01T05:06:05.249Z,996.20
2019-06-01T05:07:05.186Z,996.17
2019-06-01T05:08:05.291Z,996.17
2019-06-01T05:09:05.234Z,996.21
2019-06-01T05:10:05.190Z,996.20
2019-06-01T05:11:06.629Z,996.20
2019-06-01T05:12:05.270Z,996.19
2019-06-01T05:13:05.318Z,996.22
2019-06-01T05:14:05.423Z,996.20
2019-06-01T05:15:05.501Z,996.21
2019-06-01T05:16:05.800Z,996.23
2019-06-01T05:17:05.758Z,996.22
2019-06-01T05:18:04.444Z,996.18
2019-06-01T05:19:04.382Z,996.21
2019-06-01T05:20:04.312Z,996.24
2019-06-01T05:21:04.247Z,996.26
2019-06-01T05:22:04.175Z,996.26
2019-06-01T05:23:04.110Z,996.26
2019-06-01T05:24:04.044Z,996.27
2019-06-01T05:25:03.975Z,996.28
2019-06-01T05:26:03.912Z,996.27
2019-06-01T05:27:03.840Z,996.30
2019-06-01T05:28:03.779Z,996.34
2019-06-01T05:29:03.760Z,996.31
2019-06-01T05:30:03.646Z,996.30
2019-06-01T05:31:03.577Z,996.32
2019-06-01T05:32:03.510Z,996.28
2019-06-01T05:33:03.444Z,996.32
2019-06-01T05:34:03.378Z,996.31
2019-06-01T05:35:03.304Z,996.34
2019-06-01T05:36:03.239Z,996.30
2019-06-01T05:37:03.172Z,996.34
2019-06-01T05:38:03.109Z,996.32
2019-06-01T05:39:03.045Z,996.35
2019-06-01T05:40:02.975Z,996.38
2019-06-01T05:41:02.906Z,996.37
2019-06-01T05:42:02.841Z,996.38
2019-06-01T05:43:02.776Z,996.39
2019-06-01T05:44:02.707Z,996.41
2019-06-01T05:45:02.641Z,996.38
2019-06-01T05:46:02.580Z,996.42
2019-06-01T05:47:02.510Z,996.42
2019-06-01T05:48:02.439Z,996.42
2019-06-01T05:49:02.373Z,996.41
2019-06-01T05:50:02.306Z,996.43
2019-06-01T05:51:02.241Z,996.48
2019-06-01T05:52:02.170Z,996.48
2019-06-01T05:53:02.106Z,996.51
2019-06-01T05:54:02.047Z,996.50
2019-06-01T05:55:01.981Z,996.53
2019-06-01T05:56:01.909Z,996.50
2019-06-01T05:57:01.847Z,996.52
2019-06-01T05:58:01.776Z,996.54
2019-06-01T05:59:01.711Z,996.57
2019-06-01T06:00:01.641Z,996.55
2019-06-01T06:01:01.580Z,996.54
2019-06-01T06:02:01.510Z,996.57
2019-06-01T06:03:01.454Z,996.60
2019-06-01T06:04:01.376Z,996.61
2019-06-01T06:05:01.321Z,996.64
2019-06-01T06:06:01.261Z,996.61
2019-06-01T06:07:01.182Z,996.64
2019-06-01T06:08:01.125Z,996.66
2019-06-01T06:09:01.053Z,996.66
2019-06-01T06:10:00.984Z,996.66
2019-06-01T06:11:00.920Z,996.68
2019-06-01T06:12:00.852Z,996.67
2019-06-01T06:13:00.792Z,996.66
2019-06-01T06:14:00.728Z,996.67
2019-06-01T06:15:00.669Z,996.68
2019-06-01T06:16:00.628Z,996.72
2019-06-01T06:17:00.527Z,996.71
2019-06-01T06:18:00.472Z,996.69
2019-06-01T06:19:00.394Z,996.70
2019-06-01T06:20:00.333Z,996.74
2019-06-01T06:21:00.264Z,996.75
2019-06-01T06:22:00.197Z,996.71
2019-06-01T06:23:00.133Z,996.72
2019-06-01T06:24:00.065Z,996.71
2019-06-01T06:25:00.005Z,996.72
2019-06-01T06:25:59.947Z,996.71
2019-06-01T06:26:59.872Z,996.68
2019-06-01T06:27:59.809Z,996.67
2019-06-01T06:28:59.742Z,996.66
2019-06-01T06:29:59.673Z,996.67
2019-06-01T06:30:59.610Z,996.73
2019-06-01T06:31:59.546Z,996.70
2019-06-01T06:32:59.480Z,996.68
2019-06-01T06:33:59.416Z,996.71
2019-06-01T06:34:59.349Z,996.63
2019-06-01T06:35:59.282Z,996.71
2019-06-01T06:36:59.219Z,996.66
2019-06-01T06:37:59.163Z,996.71
2019-06-01T06:38:59.088Z,996.67
2019-06-01T06:39:59.027Z,996.68
2019-06-01T06:40:58.962Z,996.64
2019-06-01T06:41:58.902Z,996.65
2019-06-01T06:42:58.836Z,996.66
2019-06-01T06:43:58.767Z,996.66
2019-06-01T06:44:58.699Z,996.67
2019-06-01T06:45:58.640Z,996.66
2019-06-01T06:46:58.582Z,996.71
2019-06-01T06:47:58.518Z,996.73
2019-06-01T06:48:58.441Z,996.70
2019-06-01T06:49:58.379Z,996.72
2019-06-01T06:50:58.315Z,996.70
2019-06-01T06:51:58.289Z,996.71
2019-06-01T06:52:58.184Z,996.73
2019-06-01T06:53:58.134Z,996.71
2019-06-01T06:54:58.068Z,996.71
2019-06-01T06:55:57.998Z,996.72
2019-06-01T06:56:57.933Z,996.72
2019-06-01T06:57:57.863Z,996.77
2019-06-01T06:58:57.798Z,996.71
2019-06-01T06:59:57.736Z,996.73
2019-06-01T07:00:57.690Z,996.71
2019-06-01T07:01:57.606Z,996.72
2019-06-01T07:02:57.549Z,996.70
2019-06-01T07:04:11.802Z,996.69
2019-06-01T07:04:57.423Z,996.68
2019-06-01T07:05:57.343Z,996.71
2019-06-01T07:06:57.286Z,996.64
2019-06-01T07:07:57.231Z,996.68
2019-06-01T07:08:57.153Z,996.69
2019-06-01T07:09:57.102Z,996.69
2019-06-01T07:10:57.034Z,996.71
2019-06-01T07:11:56.960Z,996.72
2019-06-01T07:12:56.896Z,996.66
2019-06-01T07:13:56.841Z,996.65
2019-06-01T07:14:56.784Z,996.64
2019-06-01T07:15:56.703Z,996.62
2019-06-01T07:16:56.636Z,996.66
2019-06-01T07:17:56.581Z,996.65
2019-06-01T07:18:56.521Z,996.68
2019-06-01T07:19:56.457Z,996.66
2019-06-01T07:20:56.390Z,996.70
2019-06-01T07:21:56.325Z,996.68
2019-06-01T07:22:56.274Z,996.67
2019-06-01T07:23:56.205Z,996.65
2019-06-01T07:24:56.129Z,996.67
2019-06-01T07:25:56.077Z,996.62
2019-06-01T07:26:55.999Z,996.65
2019-06-01T07:27:55.946Z,996.62
2019-06-01T07:28:55.877Z,996.64
2019-06-01T07:29:55.812Z,996.67
2019-06-01T07:30:55.747Z,996.67
2019-06-01T07:31:55.679Z,996.68
2019-06-01T07:32:55.622Z,996.67
2019-06-01T07:33:55.553Z,996.72
2019-06-01T07:34:55.501Z,996.69
2019-06-01T07:35:55.421Z,996.71
2019-06-01T07:36:55.372Z,996.73
2019-06-01T07:37:55.293Z,996.78
2019-06-01T07:38:55.226Z,996.72
2019-06-01T07:39:55.161Z,996.76
2019-06-01T07:40:55.108Z,996.77
2019-06-01T07:41:55.043Z,996.77
2019-06-01T07:42:54.976Z,996.78
2019-06-01T07:43:54.915Z,996.77
2019-06-01T07:44:54.847Z,996.77
2019-06-01T07:45:54.784Z,996.78
2019-06-01T07:46:54.737Z,996.83
2019-06-01T07:47:54.700Z,996.89
2019-06-01T07:48:54.589Z,996.85
2019-06-01T07:49:54.528Z,996.80
2019-06-01T07:50:54.461Z,996.83
2019-06-01T07:51:54.404Z,996.85
2019-06-01T07:52:54.333Z,996.85
2019-06-01T07:53:54.342Z,996.87
2019-06-01T07:54:54.202Z,996.88
2019-06-01T07:55:54.139Z,996.87
2019-06-01T07:56:54.109Z,996.83
2019-06-01T07:57:54.030Z,996.81
2019-06-01T07:58:53.945Z,996.82
2019-06-01T07:59:53.893Z,996.78
2019-06-01T08:00:53.833Z,996.81
2019-06-01T08:01:53.756Z,996.79
2019-06-01T08:02:53.695Z,996.80
2019-06-01T08:03:53.629Z,996.83
2019-06-01T08:04:54.812Z,996.80
2019-06-01T08:05:53.498Z,996.79
2019-06-01T08:06:53.451Z,996.77
2019-06-01T08:07:53.374Z,996.79
2019-06-01T08:08:53.315Z,996.77
2019-06-01T08:09:53.244Z,996.80
2019-06-01T08:10:53.179Z,996.81
2019-06-01T08:11:53.114Z,996.83
2019-06-01T08:12:53.048Z,996.81
2019-06-01T08:13:52.986Z,996.82
2019-06-01T08:14:52.925Z,996.84
2019-06-01T08:15:52.859Z,996.81
2019-06-01T08:16:52.801Z,996.80
2019-06-01T08:17:52.733Z,996.80
2019-06-01T08:18:53.409Z,996.82
2019-06-01T08:19:52.603Z,996.83
2019-06-01T08:20:52.537Z,996.79
2019-06-01T08:21:52.572Z,996.81
2019-06-01T08:22:52.410Z,996.77
2019-06-01T08:23:52.348Z,996.77
2019-06-01T08:24:52.283Z,996.77
2019-06-01T08:25:52.221Z,996.80
2019-06-01T08:26:52.155Z,996.79
2019-06-01T08:27:52.091Z,996.84
2019-06-01T08:28:52.023Z,996.79
2019-06-01T08:29:51.960Z,996.85
2019-06-01T08:30:51.902Z,996.85
2019-06-01T08:31:55.581Z,996.79
2019-06-01T08:32:51.771Z,996.81
2019-06-01T08:33:51.713Z,996.82
2019-06-01T08:35:07.408Z,996.80
2019-06-01T08:35:51.580Z,996.83
2019-06-01T08:36:51.553Z,996.75
2019-06-01T08:37:51.454Z,996.76
2019-06-01T08:38:51.389Z,996.75
2019-06-01T08:39:51.330Z,996.67
2019-06-01T08:40:51.261Z,996.71
2019-06-01T08:41:51.193Z,996.67
2019-06-01T08:42:51.133Z,996.69
2019-06-01T08:43:51.070Z,996.69
2019-06-01T08:44:51.005Z,996.70
2019-06-01T08:45:50.941Z,996.67
2019-06-01T08:46:50.884Z,996.70
2019-06-01T08:47:50.813Z,996.67
2019-06-01T08:48:50.751Z,996.68
2019-06-01T08:49:50.689Z,996.62
2019-06-01T08:50:50.628Z,996.60
2019-06-01T08:51:50.559Z,996.61
2019-06-01T08:52:50.492Z,996.59
2019-06-01T08:53:50.430Z,996.58
2019-06-01T08:54:50.367Z,996.53
2019-06-01T08:55:50.302Z,996.56
2019-06-01T08:56:50.241Z,996.53
2019-06-01T08:57:50.196Z,996.53
2019-06-01T08:58:50.109Z,996.50
2019-06-01T08:59:50.046Z,996.55
2019-06-01T09:00:49.985Z,996.51
2019-06-01T09:01:49.920Z,996.52
2019-06-01T09:02:49.879Z,996.51
2019-06-01T09:03:49.791Z,996.53
2019-06-01T09:04:49.725Z,996.54
2019-06-01T09:05:49.665Z,996.54
2019-06-01T09:06:49.602Z,996.48
2019-06-01T09:07:49.535Z,996.49
2019-06-01T09:08:49.473Z,996.49
2019-06-01T09:09:49.409Z,996.49
2019-06-01T09:10:49.342Z,996.48
2019-06-01T09:11:49.279Z,996.46
2019-06-01T09:12:49.230Z,996.47
2019-06-01T09:13:52.130Z,996.49
2019-06-01T09:14:49.089Z,996.44
2019-06-01T09:15:49.026Z,996.43
2019-06-01T09:16:48.960Z,996.45
2019-06-01T09:17:48.897Z,996.47
2019-06-01T09:18:48.835Z,996.47
2019-06-01T09:19:48.768Z,996.47
2019-06-01T09:20:48.704Z,996.43
2019-06-01T09:21:48.647Z,996.43
2019-06-01T09:22:48.581Z,996.46
2019-06-01T09:23:48.514Z,996.40
2019-06-01T09:24:48.451Z,996.48
2019-06-01T09:25:48.384Z,996.43
2019-06-01T09:26:48.322Z,996.40
2019-06-01T09:27:48.261Z,996.36
2019-06-01T09:28:48.193Z,996.34
2019-06-01T09:29:48.132Z,996.35
2019-06-01T09:30:48.068Z,996.30
2019-06-01T09:31:48.001Z,996.31
2019-06-01T09:32:47.939Z,996.29
2019-06-01T09:33:47.877Z,996.31
2019-06-01T09:34:47.814Z,996.28
2019-06-01T09:35:55.445Z,996.34
2019-06-01T09:36:47.681Z,996.34
2019-06-01T09:37:47.622Z,996.31
2019-06-01T09:38:47.553Z,996.35
2019-06-01T09:39:47.491Z,996.30
2019-06-01T09:40:47.485Z,996.34
2019-06-01T09:41:47.360Z,996.26
2019-06-01T09:42:47.295Z,996.22
2019-06-01T09:43:47.233Z,996.28
2019-06-01T09:44:47.170Z,996.25
2019-06-01T09:45:47.106Z,996.28
2019-06-01T09:46:47.042Z,996.27
2019-06-01T09:47:47.448Z,996.27
2019-06-01T09:48:46.911Z,996.23
2019-06-01T09:49:46.849Z,996.19
2019-06-01T09:50:46.781Z,996.20
2019-06-01T09:51:46.719Z,996.20
2019-06-01T09:52:46.663Z,996.15
2019-06-01T09:53:46.593Z,996.18
2019-06-01T09:54:46.533Z,996.15
2019-06-01T09:55:46.461Z,996.12
2019-06-01T09:56:46.399Z,996.18
2019-06-01T09:57:46.336Z,996.14
2019-06-01T09:58:46.273Z,996.12
2019-06-01T09:59:46.208Z,996.21
2019-06-01T10:00:46.155Z,996.12
2019-06-01T10:01:46.077Z,996.17
2019-06-01T10:02:46.026Z,996.13
2019-06-01T10:03:45.951Z,996.17
2019-06-01T10:04:45.886Z,996.12
2019-06-01T10:06:00.677Z,996.14
2019-06-01T10:06:45.764Z,996.15
2019-06-01T10:07:45.703Z,996.12
2019-06-01T10:08:45.635Z,996.04
2019-06-01T10:09:45.574Z,996.06
2019-06-01T10:10:45.502Z,995.99
2019-06-01T10:11:45.438Z,996.03
2019-06-01T10:12:45.386Z,996.06
2019-06-01T10:13:45.315Z,995.97
2019-06-01T10:14:45.249Z,996.00
2019-06-01T10:15:45.191Z,996.03
2019-06-01T10:16:45.126Z,996.03
2019-06-01T10:17:45.056Z,996.00
2019-06-01T10:18:44.998Z,995.98
2019-06-01T10:19:44.933Z,995.91
2019-06-01T10:20:44.873Z,995.96
2019-06-01T10:21:44.807Z,995.95
2019-06-01T10:22:44.741Z,995.96
2019-06-01T10:23:48.991Z,995.99
2019-06-01T10:24:44.611Z,995.99
2019-06-01T10:25:44.554Z,996.03
2019-06-01T10:26:44.487Z,995.95
2019-06-01T10:27:44.426Z,995.97
2019-06-01T10:28:44.361Z,995.94
2019-06-01T10:29:44.294Z,995.94
2019-06-01T10:30:44.234Z,995.98
2019-06-01T10:31:44.167Z,995.91
2019-06-01T10:32:44.106Z,995.92
2019-06-01T10:33:44.039Z,995.89
2019-06-01T10:34:43.979Z,995.86
2019-06-01T10:35:43.926Z,995.87
2019-06-01T10:36:43.849Z,995.88
2019-06-01T10:37:43.791Z,995.88
2019-06-01T10:38:43.717Z,995.77
2019-06-01T10:39:43.656Z,995.82
2019-06-01T10:40:43.590Z,995.85
2019-06-01T10:41:43.538Z,995.81
2019-06-01T10:42:43.467Z,995.74
2019-06-01T10:43:43.406Z,995.76
2019-06-01T10:44:45.697Z,995.79
2019-06-01T10:45:43.277Z,995.72
2019-06-01T10:46:43.211Z,995.70
2019-06-01T10:47:43.150Z,995.73
2019-06-01T10:48:43.091Z,995.73
2019-06-01T10:49:43.023Z,995.70
2019-06-01T10:50:42.955Z,995.74
2019-06-01T10:51:42.891Z,995.74
2019-06-01T10:52:42.828Z,995.71
2019-06-01T10:53:43.831Z,995.66
2019-06-01T10:54:42.706Z,995.64
2019-06-01T10:55:42.642Z,995.64
2019-06-01T10:56:42.650Z,995.65
2019-06-01T10:57:42.818Z,995.65
2019-06-01T10:58:56.621Z,995.63
2019-06-01T10:59:42.656Z,995.64
2019-06-01T11:00:49.429Z,995.59
2019-06-01T11:01:42.716Z,995.50
2019-06-01T11:02:43.358Z,995.50
2019-06-01T11:03:42.867Z,995.51
2019-06-01T11:04:43.387Z,995.48
2019-06-01T11:05:42.989Z,995.51
2019-06-01T11:06:46.661Z,995.47
2019-06-01T11:07:43.036Z,995.47
2019-06-01T11:08:43.047Z,995.46
2019-06-01T11:09:41.758Z,995.45
2019-06-01T11:10:43.108Z,995.43
2019-06-01T11:11:41.631Z,995.39
2019-06-01T11:12:41.562Z,995.39
2019-06-01T11:13:41.500Z,995.37
2019-06-01T11:14:41.443Z,995.35
2019-06-01T11:15:41.373Z,995.39
2019-06-01T11:16:41.846Z,995.38
2019-06-01T11:17:41.322Z,995.32
2019-06-01T11:18:41.873Z,995.30
2019-06-01T11:19:42.079Z,995.30
2019-06-01T11:20:41.526Z,995.30
2019-06-01T11:21:41.729Z,995.31
2019-06-01T11:22:41.574Z,995.30
2019-06-01T11:23:43.730Z,995.28
2019-06-01T11:24:41.596Z,995.23
2019-06-01T11:25:41.668Z,995.23
2019-06-01T11:26:41.794Z,995.24
2019-06-01T11:27:41.867Z,995.20
2019-06-01T11:28:42.166Z,995.22
2019-06-01T11:29:49.107Z,995.27
2019-06-01T11:30:40.427Z,995.16
2019-06-01T11:31:40.365Z,995.09
2019-06-01T11:32:41.902Z,995.13
2019-06-01T11:33:40.278Z,995.12
2019-06-01T11:34:40.329Z,995.16
2019-06-01T11:35:41.456Z,995.10
2019-06-01T11:37:01.236Z,995.16
2019-06-01T11:37:40.401Z,995.11
2019-06-01T11:38:40.409Z,995.09
2019-06-01T11:39:40.581Z,995.04
2019-06-01T11:40:40.823Z,995.00
2019-06-01T11:41:40.658Z,995.03
2019-06-01T11:42:40.872Z,995.01
2019-06-01T11:43:40.640Z,995.04
2019-06-01T11:44:40.671Z,995.02
2019-06-01T11:45:40.734Z,994.99
2019-06-01T11:46:39.415Z,995.00
2019-06-01T11:47:39.350Z,995.03
2019-06-01T11:48:39.375Z,995.03
2019-06-01T11:49:39.223Z,994.98
2019-06-01T11:50:39.158Z,994.98
2019-06-01T11:51:39.465Z,995.03
2019-06-01T11:52:39.267Z,994.99
2019-06-01T11:53:39.937Z,994.98
2019-06-01T11:54:39.182Z,994.90
2019-06-01T11:55:39.236Z,994.91
2019-06-01T11:56:39.209Z,994.85
2019-06-01T11:57:39.487Z,994.86
2019-06-01T11:58:39.236Z,994.83
2019-06-01T11:59:39.408Z,994.88
2019-06-01T12:00:39.498Z,994.83
2019-06-01T12:01:39.828Z,994.80
2019-06-01T12:02:39.400Z,994.81
2019-06-01T12:03:39.593Z,994.75
2019-06-01T12:04:38.278Z,994.75
2019-06-01T12:05:38.214Z,994.68
2019-06-01T12:06:38.151Z,994.74
2019-06-01T12:07:38.091Z,994.71
2019-06-01T12:08:38.154Z,994.67
2019-06-01T12:09:37.963Z,994.67
2019-06-01T12:10:38.929Z,994.63
2019-06-01T12:11:37.947Z,994.61
2019-06-01T12:12:38.237Z,994.63
2019-06-01T12:13:38.094Z,994.63
2019-06-01T12:14:38.392Z,994.64
2019-06-01T12:15:38.442Z,994.51
2019-06-01T12:16:38.435Z,994.58
2019-06-01T12:17:38.760Z,994.47
2019-06-01T12:18:38.491Z,994.51
2019-06-01T12:19:38.516Z,994.47
2019-06-01T12:20:38.538Z,994.44
2019-06-01T12:21:37.205Z,994.44
2019-06-01T12:22:37.138Z,994.42
2019-06-01T12:23:37.419Z,994.37
2019-06-01T12:24:37.014Z,994.41
2019-06-01T12:25:38.147Z,994.36
2019-06-01T12:26:37.277Z,994.33
2019-06-01T12:27:37.336Z,994.30